Login to view products. 
Tuesday, February 28, 2017 (00:58 UTC)
Al Ain International Airport
ICAO Code: OMAL
IATA Code: AAN
  • METAR OMAL 280000Z 02004KT 7000 NSC 13/11 Q1018 BECMG 5000 HZ=
  • TAF OMAL 272300Z 2800/0106 VRB02KT 8000 NSC TEMPO 2800/2805 3000 HZ PROB30 TEMPO 2801/2805 0200 FG VV001 BECMG 2806/2808 34010KT PROB40 TEMPO 2823/0105 03004KT 0100 FG VV///=